createdAt,value
2019-04-29T00:03:09.740Z,13.83
2019-04-29T00:08:14.759Z,13.63
2019-04-29T00:13:21.016Z,12.80
2019-04-29T00:18:39.185Z,15.10
2019-04-29T00:23:46.285Z,14.43
2019-04-29T00:28:51.669Z,13.83
2019-04-29T00:33:55.336Z,13.60
2019-04-29T00:39:17.319Z,12.10
2019-04-29T00:44:21.611Z,13.00
2019-04-29T00:49:26.124Z,13.07
2019-04-29T00:54:36.639Z,15.80
2019-04-29T00:59:42.955Z,14.90
2019-04-29T01:04:46.415Z,13.17
2019-04-29T01:09:50.987Z,18.20
2019-04-29T01:14:54.883Z,16.53
2019-04-29T01:19:58.196Z,16.57
2019-04-29T01:25:03.274Z,18.87
2019-04-29T01:30:08.352Z,19.83
2019-04-29T01:35:12.233Z,19.47
2019-04-29T01:40:39.231Z,19.23
2019-04-29T01:45:42.368Z,22.90
2019-04-29T01:50:46.674Z,21.77
2019-04-29T01:55:49.876Z,23.33
2019-04-29T02:00:53.369Z,23.67
2019-04-29T02:05:56.252Z,24.33
2019-04-29T02:10:59.092Z,24.80
2019-04-29T02:16:01.992Z,22.13
2019-04-29T02:21:04.934Z,25.37
2019-04-29T02:26:08.379Z,22.50
2019-04-29T02:31:29.133Z,22.03
2019-04-29T02:36:32.292Z,22.90
2019-04-29T02:41:43.848Z,27.63
2019-04-29T02:46:47.479Z,26.70
2019-04-29T02:51:52.831Z,26.83
2019-04-29T02:57:10.375Z,28.93
2019-04-29T03:02:32.831Z,26.47
2019-04-29T03:07:35.753Z,29.63
2019-04-29T03:12:39.509Z,26.70
2019-04-29T03:17:43.022Z,25.40
2019-04-29T03:22:46.343Z,27.00
2019-04-29T03:27:49.882Z,25.63
2019-04-29T03:32:52.838Z,27.70
2019-04-29T03:37:56.304Z,30.67
2019-04-29T03:42:59.190Z,24.67
2019-04-29T03:48:02.428Z,26.53
2019-04-29T03:53:04.584Z,27.80
2019-04-29T03:58:08.176Z,28.20
2019-04-29T04:03:36.755Z,28.10
2019-04-29T04:09:04.333Z,24.53
2019-04-29T04:13:52.463Z,27.07
2019-04-29T04:19:05.525Z,28.13
2019-04-29T04:24:08.682Z,25.67
2019-04-29T04:29:12.048Z,27.23
2019-04-29T04:34:15.005Z,22.70
2019-04-29T04:39:18.171Z,24.60
2019-04-29T04:44:23.423Z,24.37
2019-04-29T04:49:26.216Z,23.50
2019-04-29T04:54:31.436Z,25.20
2019-04-29T04:59:34.579Z,23.80
2019-04-29T05:04:37.263Z,23.73
2019-04-29T05:09:40.400Z,21.83
2019-04-29T05:14:43.289Z,24.43
2019-04-29T05:19:46.817Z,24.70
2019-04-29T05:24:50.050Z,24.47
2019-04-29T05:29:52.928Z,21.77
2019-04-29T05:34:57.769Z,23.47
2019-04-29T05:40:00.568Z,22.87
2019-04-29T05:45:10.853Z,21.93
2019-04-29T05:50:30.522Z,24.30
2019-04-29T05:55:32.681Z,23.33
2019-04-29T06:00:36.039Z,24.30
2019-04-29T06:05:38.875Z,23.30
2019-04-29T06:10:42.324Z,22.67
2019-04-29T06:15:45.240Z,26.00
2019-04-29T06:20:48.437Z,23.27
2019-04-29T06:25:51.675Z,24.70
2019-04-29T06:30:56.452Z,24.27
2019-04-29T06:36:02.109Z,23.43
2019-04-29T06:41:05.532Z,26.07
2019-04-29T06:46:09.821Z,23.43
2019-04-29T06:51:12.797Z,22.50
2019-04-29T06:56:15.953Z,24.00
2019-04-29T07:01:19.445Z,22.13
2019-04-29T07:06:22.673Z,23.03
2019-04-29T07:11:26.953Z,21.50
2019-04-29T07:16:32.085Z,22.17
2019-04-29T07:21:35.647Z,21.97
2019-04-29T07:26:39.179Z,20.50
2019-04-29T07:31:42.691Z,21.10
2019-04-29T07:36:46.236Z,21.70
2019-04-29T07:41:49.573Z,23.30
2019-04-29T07:46:57.882Z,21.93
2019-04-29T07:52:00.364Z,22.97
2019-04-29T07:57:03.591Z,23.27
2019-04-29T08:02:06.580Z,22.20
2019-04-29T08:07:09.994Z,21.00
2019-04-29T08:12:13.088Z,19.73
2019-04-29T08:17:16.601Z,22.47
2019-04-29T08:22:22.910Z,21.00
2019-04-29T08:27:39.088Z,22.13
2019-04-29T08:32:31.688Z,19.10
2019-04-29T08:37:35.348Z,18.17
2019-04-29T08:42:46.471Z,18.07
2019-04-29T08:47:47.345Z,18.93
2019-04-29T08:52:50.247Z,23.30
2019-04-29T08:57:53.399Z,19.17
2019-04-29T09:02:56.266Z,20.77
2019-04-29T09:08:00.267Z,26.10
2019-04-29T09:13:03.104Z,24.17
2019-04-29T09:18:06.503Z,26.07
2019-04-29T09:23:12.423Z,26.97
2019-04-29T09:28:18.413Z,27.80
2019-04-29T09:33:21.067Z,29.60
2019-04-29T09:38:24.258Z,29.33
2019-04-29T09:43:49.762Z,32.10
2019-04-29T09:48:53.008Z,33.03
2019-04-29T09:53:56.223Z,34.53
2019-04-29T09:59:17.545Z,32.63
2019-04-29T10:04:30.141Z,34.87
2019-04-29T10:09:33.773Z,31.60
2019-04-29T10:14:36.752Z,31.40
2019-04-29T10:19:54.453Z,30.67
2019-04-29T10:24:57.664Z,32.67
2019-04-29T10:30:00.571Z,32.33
2019-04-29T10:35:08.671Z,32.20
2019-04-29T10:40:37.475Z,34.20
2019-04-29T10:46:15.326Z,32.10
2019-04-29T10:51:18.004Z,29.57
2019-04-29T10:56:21.434Z,28.27
2019-04-29T11:02:14.067Z,31.10
2019-04-29T11:07:35.590Z,31.17
2019-04-29T11:12:38.850Z,31.70
2019-04-29T11:17:44.685Z,29.70
2019-04-29T11:22:53.283Z,31.77
2019-04-29T11:27:57.392Z,29.87
2019-04-29T11:33:19.878Z,29.63
2019-04-29T11:38:23.419Z,33.50
2019-04-29T11:43:28.340Z,30.07
2019-04-29T11:48:31.912Z,27.00
2019-04-29T11:53:36.984Z,27.13
2019-04-29T11:58:46.355Z,25.10
2019-04-29T12:03:51.554Z,22.70
2019-04-29T12:08:55.159Z,21.80
2019-04-29T12:14:13.683Z,19.23
2019-04-29T12:19:23.036Z,23.37
2019-04-29T12:24:26.241Z,16.60
2019-04-29T12:29:29.439Z,13.30
2019-04-29T12:35:01.248Z,9.87
2019-04-29T12:40:33.584Z,10.77
2019-04-29T12:45:41.762Z,8.60
2019-04-29T12:50:45.481Z,11.00
2019-04-29T12:55:53.461Z,9.43
2019-04-29T13:01:01.156Z,9.73
2019-04-29T13:06:15.591Z,9.00
2019-04-29T13:11:20.960Z,8.97
2019-04-29T13:17:13.941Z,10.60
2019-04-29T13:22:10.586Z,11.10
2019-04-29T13:27:16.420Z,11.47
2019-04-29T13:32:17.456Z,10.07
2019-04-29T13:37:22.200Z,10.90
2019-04-29T13:42:25.661Z,11.20
2019-04-29T13:47:44.516Z,11.50
2019-04-29T13:52:47.890Z,10.50
2019-04-29T13:57:54.876Z,12.13
2019-04-29T14:03:00.329Z,9.20
2019-04-29T14:08:04.043Z,9.50
2019-04-29T14:13:15.147Z,9.30
2019-04-29T14:18:13.611Z,9.40
2019-04-29T14:23:17.127Z,10.53
2019-04-29T14:28:20.370Z,12.07
2019-04-29T14:33:27.699Z,11.47
2019-04-29T14:38:30.577Z,12.60
2019-04-29T14:43:54.905Z,11.70
2019-04-29T14:49:14.497Z,13.70
2019-04-29T14:54:17.028Z,13.13
2019-04-29T14:59:20.688Z,12.30
2019-04-29T15:04:26.287Z,13.30
2019-04-29T15:09:29.270Z,14.67
2019-04-29T15:14:49.162Z,12.07
2019-04-29T15:20:07.352Z,14.10
2019-04-29T15:25:10.840Z,13.33
2019-04-29T15:30:13.643Z,13.80
2019-04-29T15:35:19.829Z,13.33
2019-04-29T15:40:26.321Z,12.67
2019-04-29T15:45:28.055Z,12.93
2019-04-29T15:50:32.750Z,14.83
2019-04-29T15:55:39.467Z,13.40
2019-04-29T16:00:41.940Z,12.87
2019-04-29T16:06:21.180Z,12.10
2019-04-29T16:11:34.781Z,12.47
2019-04-29T16:16:38.023Z,11.30
2019-04-29T16:21:41.770Z,12.50
2019-04-29T16:26:45.054Z,13.70
2019-04-29T16:31:48.195Z,13.77
2019-04-29T16:36:52.577Z,13.17
2019-04-29T16:42:04.810Z,12.73
2019-04-29T16:47:13.234Z,14.40
2019-04-29T16:52:15.556Z,13.60
2019-04-29T16:57:18.857Z,12.87
2019-04-29T17:02:22.930Z,12.20
2019-04-29T17:07:26.277Z,10.57
2019-04-29T17:17:40.745Z,10.60
2019-04-29T17:22:44.804Z,9.57
2019-04-29T17:28:11.926Z,10.50
2019-04-29T17:33:26.321Z,10.60
2019-04-29T17:35:17.752Z,9.90
2019-04-29T17:38:22.226Z,10.13
2019-04-29T17:43:44.764Z,9.43
2019-04-29T17:48:54.072Z,10.43
2019-04-29T17:54:00.030Z,9.87
2019-04-29T17:59:18.191Z,10.27
2019-04-29T18:04:36.075Z,8.53
2019-04-29T18:09:50.270Z,7.33
2019-04-29T18:14:55.065Z,6.53
2019-04-29T18:20:30.701Z,6.00
2019-04-29T18:25:48.777Z,5.80
2019-04-29T18:30:56.048Z,5.63
2019-04-29T18:36:04.145Z,4.50
2019-04-29T18:41:01.839Z,4.67
2019-04-29T18:46:12.270Z,4.57
2019-04-29T18:51:10.931Z,3.90
2019-04-29T18:56:14.883Z,4.40
2019-04-29T19:01:19.750Z,4.90
2019-04-29T19:06:23.946Z,4.50
2019-04-29T19:11:32.469Z,4.50
2019-04-29T19:16:33.630Z,3.80
2019-04-29T19:21:36.991Z,4.70
2019-04-29T19:26:40.542Z,3.60
2019-04-29T19:31:48.640Z,4.60
2019-04-29T19:36:50.719Z,4.00
2019-04-29T19:41:55.709Z,4.20
2019-04-29T19:46:59.295Z,3.40
2019-04-29T19:52:02.532Z,4.97
2019-04-29T19:57:07.500Z,3.73
2019-04-29T20:02:11.750Z,3.90
2019-04-29T20:07:17.328Z,5.47
2019-04-29T20:12:21.004Z,7.10
2019-04-29T20:17:45.727Z,5.77
2019-04-29T20:22:51.173Z,6.60
2019-04-29T20:28:05.102Z,5.67
2019-04-29T20:33:01.167Z,6.03
2019-04-29T20:38:05.528Z,5.97
2019-04-29T20:43:08.772Z,5.70
2019-04-29T20:48:17.871Z,6.43
2019-04-29T20:53:30.860Z,5.70
2019-04-29T20:58:35.991Z,5.80
2019-04-29T21:03:40.911Z,6.67
2019-04-29T21:08:51.152Z,6.63
2019-04-29T21:14:00.818Z,7.17
2019-04-29T21:19:08.516Z,8.53
2019-04-29T21:24:14.777Z,7.93
2019-04-29T21:29:19.420Z,9.17
2019-04-29T21:34:25.523Z,9.43
2019-04-29T21:39:38.941Z,10.80
2019-04-29T21:44:42.489Z,9.63
2019-04-29T21:49:49.732Z,9.83
2019-04-29T21:54:50.972Z,9.90
2019-04-29T21:59:55.546Z,10.07
2019-04-29T22:04:59.047Z,10.03
2019-04-29T22:10:02.543Z,10.23
2019-04-29T22:15:05.995Z,11.20
2019-04-29T22:20:10.493Z,11.07
2019-04-29T22:25:15.604Z,11.27
2019-04-29T22:30:19.867Z,15.50
2019-04-29T22:35:25.186Z,9.83
2019-04-29T22:40:28.365Z,10.30
2019-04-29T22:45:34.230Z,8.00
2019-04-29T22:50:38.066Z,8.83
2019-04-29T22:55:42.225Z,9.20
2019-04-29T23:00:45.810Z,9.23
2019-04-29T23:05:48.698Z,9.17
2019-04-29T23:10:52.226Z,8.10
2019-04-29T23:16:00.998Z,8.90
2019-04-29T23:21:16.532Z,8.37
2019-04-29T23:26:20.372Z,8.50
2019-04-29T23:31:27.197Z,8.33
2019-04-29T23:36:29.143Z,8.20
2019-04-29T23:41:32.923Z,9.30
2019-04-29T23:46:36.591Z,8.70
2019-04-29T23:51:39.450Z,9.03
2019-04-29T23:57:11.269Z,8.07
